M I D A S
Marine Information and Data Acquisition System
Tripno 2275 of the Zeeleeuw from 2012-03-22 07:52:03 to 2012-03-22 16:22:12
Back to CruiseResearch ActivitiesStationsMapUnderway DataData graphs

EquipmentUnitsComment
TimeDGPSUTC
LatitudeDGPSDM.mWGS84
LongitudeDGPSDM.mWGS84
HeadingGyrodeg 
SOGDGPSknotsSpeed over ground
COGDGPSdegCourse over ground
DepthEcho soundermeters200 kHz
Missing or incorrect values are displayed as -999
Navigation data collected by the RV Zeeleeuw from 2012-03-22 07:26:42 to 2012-03-22 16:43:41
                                                                                    Next 1000 lines
Time Latitude Longitude Heading SOG COG Depth
2012-03-22 07:26:51 51°13.634 2°56.019 126.1 -999 252 -999
2012-03-22 07:26:57 51°13.634 2°56.019 126.1 -999 38 -999
2012-03-22 07:27:02 51°13.635 2°56.019 126.1 -999 209 -999
2012-03-22 07:27:07 51°13.635 2°56.019 126.1 -999 238 -999
2012-03-22 07:27:11 51°13.635 2°56.019 126.1 -999 54 -999
2012-03-22 07:27:17 51°13.635 2°56.019 126.1 -999 50 -999
2012-03-22 07:27:21 51°13.635 2°56.019 126.1 0.1 70 -999
2012-03-22 07:27:26 51°13.635 2°56.018 126.1 -999 73 -999
2012-03-22 07:27:32 51°13.635 2°56.018 126.1 0.1 69 -999
2012-03-22 07:27:36 51°13.635 2°56.018 126.1 -999 44 -999
2012-03-22 07:27:42 51°13.635 2°56.018 126.1 -999 17 -999
2012-03-22 07:27:47 51°13.635 2°56.018 126.1 0.1 263 -999
2012-03-22 07:27:52 51°13.635 2°56.018 126.1 0.1 250 -999
2012-03-22 07:27:56 51°13.635 2°56.018 126.1 -999 279 -999
2012-03-22 07:28:02 51°13.635 2°56.018 126.1 -999 343 -999
2012-03-22 07:28:07 51°13.635 2°56.018 126.1 -999 91 -999
2012-03-22 07:28:12 51°13.635 2°56.018 126.1 -999 245 -999
2012-03-22 07:28:16 51°13.635 2°56.018 126.1 -999 225 -999
2012-03-22 07:28:22 51°13.635 2°56.018 126.1 0.1 149 -999
2012-03-22 07:28:27 51°13.635 2°56.018 126.1 0.1 149 -999
2012-03-22 07:28:32 51°13.635 2°56.018 126.1 0.1 207 -999
2012-03-22 07:28:36 51°13.634 2°56.018 126.1 0.1 217 -999
2012-03-22 07:28:41 51°13.635 2°56.018 126.1 -999 61 -999
2012-03-22 07:28:46 51°13.635 2°56.018 126.1 -999 34 -999
2012-03-22 07:28:51 51°13.635 2°56.018 126.1 -999 347 -999
2012-03-22 07:28:57 51°13.635 2°56.018 126.1 -999 22 -999
2012-03-22 07:29:01 51°13.635 2°56.019 126.1 0.1 65 -999
2012-03-22 07:29:06 51°13.635 2°56.018 126.1 -999 67 -999
2012-03-22 07:29:11 51°13.635 2°56.018 126.1 -999 263 -999
2012-03-22 07:29:16 51°13.635 2°56.017 126.1 -999 205 -999
2012-03-22 07:29:21 51°13.635 2°56.017 126.1 -999 216 -999
2012-03-22 07:29:27 51°13.635 2°56.017 126.1 -999 254 -999
2012-03-22 07:29:32 51°13.635 2°56.017 126.1 -999 74 -999
2012-03-22 07:29:37 51°13.635 2°56.017 126.1 -999 254 -999
2012-03-22 07:29:42 51°13.635 2°56.017 126.1 -999 224 -999
2012-03-22 07:29:46 51°13.635 2°56.017 126.1 -999 31 -999
2012-03-22 07:29:52 51°13.635 2°56.017 126.1 -999 205 -999
2012-03-22 07:29:57 51°13.635 2°56.017 126.1 -999 36 -999
2012-03-22 07:30:02 51°13.635 2°56.017 126.1 -999 338 -999
2012-03-22 07:30:06 51°13.635 2°56.017 126.1 -999 146 -999
2012-03-22 07:30:11 51°13.635 2°56.017 126.1 -999 247 -999
2012-03-22 07:30:16 51°13.635 2°56.017 126.1 -999 49 -999
2012-03-22 07:30:21 51°13.635 2°56.017 126.1 -999 288 -999
2012-03-22 07:30:26 51°13.635 2°56.017 126.1 -999 87 -999
2012-03-22 07:30:31 51°13.635 2°56.018 126.1 -999 46 -999
2012-03-22 07:30:36 51°13.635 2°56.018 126.1 0.1 18 -999
2012-03-22 07:30:41 51°13.635 2°56.018 126.1 -999 20 -999
2012-03-22 07:30:46 51°13.635 2°56.018 126.1 -999 116 -999
2012-03-22 07:30:51 51°13.635 2°56.018 126.1 -999 312 -999
2012-03-22 07:30:56 51°13.635 2°56.018 126.1 -999 267 -999
2012-03-22 07:31:01 51°13.635 2°56.018 126.1 -999 223 -999
2012-03-22 07:31:07 51°13.635 2°56.018 126.1 -999 263 -999
2012-03-22 07:31:12 51°13.635 2°56.017 126.1 -999 222 -999
2012-03-22 07:31:17 51°13.635 2°56.017 126.1 -999 77 -999
2012-03-22 07:31:22 51°13.636 2°56.017 126.1 -999 49 -999
2012-03-22 07:31:27 51°13.636 2°56.017 126.1 -999 254 -999
2012-03-22 07:31:31 51°13.636 2°56.017 126.1 -999 263 -999
2012-03-22 07:31:37 51°13.636 2°56.016 126.1 -999 66 -999
2012-03-22 07:31:42 51°13.636 2°56.016 126.1 -999 184 -999
2012-03-22 07:31:47 51°13.636 2°56.016 126.1 -999 255 -999
2012-03-22 07:31:51 51°13.636 2°56.016 126.1 -999 70 -999
2012-03-22 07:31:57 51°13.636 2°56.016 126.1 -999 340 -999
2012-03-22 07:32:02 51°13.636 2°56.016 126.1 -999 58 -999
2012-03-22 07:32:07 51°13.636 2°56.016 126.1 -999 310 -999
2012-03-22 07:32:11 51°13.636 2°56.017 126.1 -999 25 -999
2012-03-22 07:32:16 51°13.636 2°56.017 126.1 -999 316 -999
2012-03-22 07:32:21 51°13.636 2°56.017 126.1 -999 344 -999
2012-03-22 07:32:26 51°13.636 2°56.017 126.1 -999 100 -999
2012-03-22 07:32:32 51°13.636 2°56.017 126.1 -999 105 -999
2012-03-22 07:32:36 51°13.636 2°56.017 126.1 -999 14 -999
2012-03-22 07:32:42 51°13.636 2°56.017 126.1 -999 65 -999
2012-03-22 07:32:47 51°13.636 2°56.017 126.1 -999 146 -999
2012-03-22 07:32:52 51°13.636 2°56.017 126.1 -999 140 -999
2012-03-22 07:32:56 51°13.636 2°56.017 126.1 -999 197 -999
2012-03-22 07:33:02 51°13.636 2°56.017 126.1 -999 101 -999
2012-03-22 07:33:07 51°13.636 2°56.017 126.1 -999 333 -999
2012-03-22 07:33:12 51°13.636 2°56.017 126.1 -999 50 -999
2012-03-22 07:33:16 51°13.636 2°56.017 126.1 -999 343 -999
2012-03-22 07:33:22 51°13.636 2°56.018 126.1 -999 345 -999
2012-03-22 07:33:27 51°13.636 2°56.018 126.1 -999 100 -999
2012-03-22 07:33:32 51°13.635 2°56.018 126.1 -999 75 -999
2012-03-22 07:33:36 51°13.635 2°56.018 126.1 -999 69 -999
2012-03-22 07:33:42 51°13.635 2°56.018 126.1 -999 337 -999
2012-03-22 07:33:47 51°13.635 2°56.018 126.1 -999 35 -999
2012-03-22 07:33:52 51°13.635 2°56.018 126.1 -999 32 -999
2012-03-22 07:33:57 51°13.635 2°56.018 126.1 -999 271 -999
2012-03-22 07:34:02 51°13.635 2°56.018 126.1 -999 232 -999
2012-03-22 07:34:07 51°13.635 2°56.018 126.1 -999 177 -999
2012-03-22 07:34:11 51°13.635 2°56.018 126.1 -999 351 -999
2012-03-22 07:34:16 51°13.635 2°56.018 126.1 -999 52 -999
2012-03-22 07:34:22 51°13.635 2°56.019 126.1 -999 35 -999
2012-03-22 07:34:27 51°13.635 2°56.019 126.1 -999 23 -999
2012-03-22 07:34:31 51°13.635 2°56.019 126.1 -999 48 -999
2012-03-22 07:34:36 51°13.635 2°56.019 126.1 -999 8 -999
2012-03-22 07:34:42 51°13.635 2°56.019 126.1 -999 25 -999
2012-03-22 07:34:47 51°13.635 2°56.019 126.1 -999 29 -999
2012-03-22 07:34:52 51°13.635 2°56.018 126.1 -999 173 -999
2012-03-22 07:34:56 51°13.635 2°56.018 126.1 -999 185 -999
2012-03-22 07:35:01 51°13.635 2°56.018 126.1 -999 167 -999
2012-03-22 07:35:07 51°13.635 2°56.018 126.1 -999 179 -999
2012-03-22 07:35:12 51°13.635 2°56.018 126.2 -999 24 -999
2012-03-22 07:35:16 51°13.635 2°56.018 126.2 -999 33 -999
2012-03-22 07:35:21 51°13.635 2°56.018 126.2 -999 247 -999
2012-03-22 07:35:26 51°13.635 2°56.018 126.2 -999 55 -999
2012-03-22 07:35:32 51°13.635 2°56.018 126.2 -999 37 -999
2012-03-22 07:35:36 51°13.635 2°56.018 126.2 -999 46 -999
2012-03-22 07:35:41 51°13.635 2°56.018 126.2 -999 19 -999
2012-03-22 07:35:46 51°13.635 2°56.018 126.2 -999 24 -999
2012-03-22 07:35:51 51°13.635 2°56.018 126.2 -999 16 -999
2012-03-22 07:35:56 51°13.635 2°56.018 126.2 -999 13 -999
2012-03-22 07:36:02 51°13.635 2°56.018 126.2 -999 346 -999
2012-03-22 07:36:07 51°13.635 2°56.018 126.2 -999 45 -999
2012-03-22 07:36:11 51°13.635 2°56.018 126.2 -999 11 -999
2012-03-22 07:36:16 51°13.636 2°56.018 126.2 -999 19 -999
2012-03-22 07:36:22 51°13.636 2°56.018 126.2 -999 86 -999
2012-03-22 07:36:27 51°13.636 2°56.018 126.3 -999 170 -999
2012-03-22 07:36:31 51°13.636 2°56.018 126.3 -999 170 -999
2012-03-22 07:36:36 51°13.636 2°56.018 126.3 -999 119 -999
2012-03-22 07:36:42 51°13.636 2°56.018 126.3 -999 10 -999
2012-03-22 07:36:47 51°13.636 2°56.018 126.3 -999 15 -999
2012-03-22 07:36:51 51°13.636 2°56.018 126.3 -999 113 -999
2012-03-22 07:36:56 51°13.636 2°56.018 126.3 -999 51 -999
2012-03-22 07:37:02 51°13.636 2°56.018 126.3 -999 151 -999
2012-03-22 07:37:07 51°13.637 2°56.018 126.3 -999 18 -999
2012-03-22 07:37:12 51°13.637 2°56.018 126.3 -999 346 -999
2012-03-22 07:37:16 51°13.637 2°56.018 126.3 -999 22 -999
2012-03-22 07:37:21 51°13.637 2°56.019 126.3 -999 6 -999
2012-03-22 07:37:27 51°13.637 2°56.019 126.3 -999 202 -999
2012-03-22 07:37:32 51°13.637 2°56.019 126.3 -999 39 -999
2012-03-22 07:37:36 51°13.637 2°56.019 126.3 -999 26 -999
2012-03-22 07:37:42 51°13.637 2°56.019 126.3 -999 352 -999
2012-03-22 07:37:46 51°13.637 2°56.019 126.3 -999 142 -999
2012-03-22 07:37:52 51°13.637 2°56.019 126.3 -999 24 -999
2012-03-22 07:37:56 51°13.637 2°56.019 126.3 -999 16 -999
2012-03-22 07:38:01 51°13.637 2°56.019 126.3 -999 226 -999
2012-03-22 07:38:06 51°13.637 2°56.019 126.3 -999 69 -999
2012-03-22 07:38:11 51°13.637 2°56.019 126.3 -999 50 -999
2012-03-22 07:38:16 51°13.637 2°56.019 126.3 -999 230 -999
2012-03-22 07:38:22 51°13.637 2°56.019 126.3 -999 261 -999
2012-03-22 07:38:27 51°13.636 2°56.019 126.4 -999 49 -999
2012-03-22 07:38:31 51°13.636 2°56.019 126.4 -999 116 -999
2012-03-22 07:38:36 51°13.636 2°56.019 126.4 -999 114 -999
2012-03-22 07:38:42 51°13.636 2°56.019 126.4 -999 222 -999
2012-03-22 07:38:47 51°13.636 2°56.019 126.4 -999 230 -999
2012-03-22 07:38:51 51°13.636 2°56.019 126.4 -999 5 -999
2012-03-22 07:38:56 51°13.636 2°56.019 126.4 -999 207 -999
2012-03-22 07:39:02 51°13.636 2°56.02 126.4 -999 19 -999
2012-03-22 07:39:07 51°13.636 2°56.02 126.5 -999 18 -999
2012-03-22 07:39:12 51°13.636 2°56.02 126.5 -999 318 -999
2012-03-22 07:39:16 51°13.636 2°56.02 126.5 -999 218 -999
2012-03-22 07:39:21 51°13.636 2°56.02 126.5 -999 45 -999
2012-03-22 07:39:27 51°13.636 2°56.02 126.5 -999 2 -999
2012-03-22 07:39:32 51°13.636 2°56.02 126.5 -999 3 -999
2012-03-22 07:39:36 51°13.636 2°56.02 126.5 -999 38 -999
2012-03-22 07:39:41 51°13.636 2°56.02 126.4 -999 -999 -999
2012-03-22 07:39:46 51°13.636 2°56.021 126.4 -999 19 -999
2012-03-22 07:39:52 51°13.636 2°56.021 126.4 -999 28 -999
2012-03-22 07:39:56 51°13.636 2°56.021 126.4 -999 151 -999
2012-03-22 07:40:01 51°13.636 2°56.021 126.4 -999 151 -999
2012-03-22 07:40:06 51°13.636 2°56.021 126.4 -999 14 -999
2012-03-22 07:40:12 51°13.636 2°56.021 126.3 -999 216 -999
2012-03-22 07:40:16 51°13.636 2°56.021 126.3 -999 16 -999
2012-03-22 07:40:22 51°13.636 2°56.021 126.3 -999 163 -999
2012-03-22 07:40:26 51°13.636 2°56.021 126.3 -999 138 -999
2012-03-22 07:40:31 51°13.636 2°56.021 126.3 -999 159 -999
2012-03-22 07:40:36 51°13.636 2°56.021 126.3 -999 164 -999
2012-03-22 07:40:42 51°13.636 2°56.021 126.3 -999 179 -999
2012-03-22 07:40:46 51°13.636 2°56.021 126.3 -999 196 -999
2012-03-22 07:40:51 51°13.636 2°56.021 126.3 -999 165 -999
2012-03-22 07:40:56 51°13.636 2°56.021 126.3 -999 34 -999
2012-03-22 07:41:02 51°13.636 2°56.021 126.3 -999 12 -999
2012-03-22 07:41:07 51°13.636 2°56.021 126.3 -999 2 -999
2012-03-22 07:41:11 51°13.636 2°56.021 126.3 -999 346 -999
2012-03-22 07:41:16 51°13.636 2°56.021 126.3 -999 355 -999
2012-03-22 07:41:22 51°13.636 2°56.021 126.3 -999 19 -999
2012-03-22 07:41:27 51°13.636 2°56.021 126.2 -999 334 -999
2012-03-22 07:41:32 51°13.636 2°56.021 126.2 -999 326 -999
2012-03-22 07:41:36 51°13.636 2°56.021 126.2 -999 75 -999
2012-03-22 07:41:41 51°13.636 2°56.021 126.2 -999 47 -999
2012-03-22 07:41:47 51°13.636 2°56.021 126.2 -999 62 -999
2012-03-22 07:41:52 51°13.636 2°56.021 126.2 -999 41 -999
2012-03-22 07:41:56 51°13.636 2°56.021 126.2 -999 41 -999
2012-03-22 07:42:01 51°13.636 2°56.021 126.2 -999 41 -999
2012-03-22 07:42:06 51°13.636 2°56.021 126.2 -999 36 -999
2012-03-22 07:42:12 51°13.636 2°56.021 126.2 -999 7 -999
2012-03-22 07:42:16 51°13.636 2°56.021 126.2 -999 200 -999
2012-03-22 07:42:21 51°13.636 2°56.021 126.2 -999 151 -999
2012-03-22 07:42:26 51°13.636 2°56.021 126.2 -999 39 -999
2012-03-22 07:42:31 51°13.636 2°56.021 126.2 -999 182 -999
2012-03-22 07:42:36 51°13.636 2°56.021 126.2 -999 359 -999
2012-03-22 07:42:42 51°13.636 2°56.021 126.2 -999 154 -999
2012-03-22 07:42:46 51°13.636 2°56.02 126.2 -999 89 -999
2012-03-22 07:42:51 51°13.636 2°56.02 126.2 -999 161 -999
2012-03-22 07:42:56 51°13.636 2°56.02 126.3 -999 17 -999
2012-03-22 07:43:02 51°13.636 2°56.02 126.3 -999 45 -999
2012-03-22 07:43:07 51°13.636 2°56.02 126.3 -999 158 -999
2012-03-22 07:43:11 51°13.637 2°56.02 126.3 -999 166 -999
2012-03-22 07:43:16 51°13.637 2°56.02 126.3 -999 178 -999
2012-03-22 07:43:22 51°13.637 2°56.02 126.3 -999 354 -999
2012-03-22 07:43:27 51°13.637 2°56.02 126.3 -999 2 -999
2012-03-22 07:43:32 51°13.637 2°56.02 126.3 -999 14 -999
2012-03-22 07:43:36 51°13.637 2°56.02 126.3 -999 33 -999
2012-03-22 07:43:42 51°13.637 2°56.02 126.3 -999 78 -999
2012-03-22 07:43:47 51°13.637 2°56.02 126.3 -999 35 -999
2012-03-22 07:43:52 51°13.637 2°56.02 126.3 -999 1 -999
2012-03-22 07:43:56 51°13.637 2°56.02 126.3 -999 35 -999
2012-03-22 07:44:01 51°13.637 2°56.02 126.3 -999 92 -999
2012-03-22 07:44:07 51°13.637 2°56.019 126.3 -999 182 -999
2012-03-22 07:44:12 51°13.637 2°56.019 126.3 -999 290 -999
2012-03-22 07:44:16 51°13.637 2°56.019 126.3 -999 174 -999
2012-03-22 07:44:21 51°13.637 2°56.02 126.3 -999 164 -999
2012-03-22 07:44:26 51°13.637 2°56.02 126.3 -999 104 -999
2012-03-22 07:44:32 51°13.637 2°56.019 126.4 -999 177 -999
2012-03-22 07:44:36 51°13.636 2°56.019 126.5 -999 175 -999
2012-03-22 07:44:42 51°13.636 2°56.019 127 -999 163 -999
2012-03-22 07:44:46 51°13.636 2°56.019 127.3 -999 245 6.7
2012-03-22 07:44:51 51°13.636 2°56.019 127.6 -999 202 -999
2012-03-22 07:44:56 51°13.636 2°56.019 127.6 -999 342 -999
2012-03-22 07:45:02 51°13.636 2°56.019 127.6 -999 9 -999
2012-03-22 07:45:07 51°13.637 2°56.02 127.6 0.1 11 -999
2012-03-22 07:45:11 51°13.637 2°56.02 127.6 -999 353 -999
2012-03-22 07:45:16 51°13.637 2°56.019 127.6 -999 358 7
2012-03-22 07:45:22 51°13.637 2°56.02 127.5 -999 205 -999
2012-03-22 07:45:27 51°13.637 2°56.02 127.4 -999 15 -999
2012-03-22 07:45:31 51°13.637 2°56.019 127.3 -999 348 -999
2012-03-22 07:45:36 51°13.637 2°56.019 127.1 -999 358 6.7
2012-03-22 07:45:42 51°13.637 2°56.019 127.1 -999 99 -999
2012-03-22 07:45:47 51°13.637 2°56.019 127 -999 20 -999
2012-03-22 07:45:52 51°13.637 2°56.019 126.9 -999 8 -999
2012-03-22 07:45:56 51°13.637 2°56.019 126.9 -999 63 -999
2012-03-22 07:46:02 51°13.637 2°56.019 126.9 -999 11 -999
2012-03-22 07:46:07 51°13.637 2°56.019 126.9 -999 338 -999
2012-03-22 07:46:12 51°13.637 2°56.019 126.8 -999 27 -999
2012-03-22 07:46:16 51°13.637 2°56.019 126.6 -999 10 -999
2012-03-22 07:46:21 51°13.637 2°56.019 126.5 -999 110 -999
2012-03-22 07:46:26 51°13.637 2°56.019 126.5 -999 30 -999
2012-03-22 07:46:32 51°13.637 2°56.019 126.5 -999 132 -999
2012-03-22 07:46:36 51°13.637 2°56.019 126.5 -999 160 -999
2012-03-22 07:46:41 51°13.637 2°56.019 126.5 -999 24 -999
2012-03-22 07:46:46 51°13.637 2°56.019 126.5 -999 176 -999
2012-03-22 07:46:52 51°13.637 2°56.019 126.6 -999 80 -999
2012-03-22 07:46:56 51°13.637 2°56.019 126.6 -999 32 -999
2012-03-22 07:47:02 51°13.637 2°56.019 126.7 -999 42 -999
2012-03-22 07:47:06 51°13.637 2°56.019 126.7 -999 324 -999
2012-03-22 07:47:11 51°13.637 2°56.019 126.7 -999 107 -999
2012-03-22 07:47:16 51°13.637 2°56.019 126.6 -999 14 -999
2012-03-22 07:47:22 51°13.637 2°56.019 126.6 -999 132 -999
2012-03-22 07:47:26 51°13.637 2°56.019 126.6 -999 208 -999
2012-03-22 07:47:31 51°13.637 2°56.019 127 -999 348 -999
2012-03-22 07:47:36 51°13.637 2°56.019 127 -999 34 -999
2012-03-22 07:47:42 51°13.637 2°56.019 127 0.1 24 -999
2012-03-22 07:47:47 51°13.637 2°56.019 126.9 -999 92 -999
2012-03-22 07:47:51 51°13.637 2°56.019 126.9 -999 221 -999
2012-03-22 07:47:56 51°13.637 2°56.019 126.9 -999 357 -999
2012-03-22 07:48:02 51°13.636 2°56.019 126.9 -999 359 -999
2012-03-22 07:48:07 51°13.636 2°56.019 126.8 -999 37 -999
2012-03-22 07:48:12 51°13.636 2°56.019 126.6 -999 88 -999
2012-03-22 07:48:16 51°13.636 2°56.019 126.5 -999 180 -999
2012-03-22 07:48:21 51°13.636 2°56.019 126.5 -999 166 -999
2012-03-22 07:48:27 51°13.636 2°56.019 126.7 -999 195 -999
2012-03-22 07:48:32 51°13.636 2°56.019 127.1 -999 155 -999
2012-03-22 07:48:36 51°13.636 2°56.019 127.3 -999 160 -999
2012-03-22 07:48:41 51°13.636 2°56.019 127.4 -999 168 -999
2012-03-22 07:48:46 51°13.636 2°56.019 127.5 0.1 96 -999
2012-03-22 07:48:52 51°13.636 2°56.019 127.5 0.1 146 -999
2012-03-22 07:48:56 51°13.636 2°56.019 127.4 0.1 109 -999
2012-03-22 07:49:01 51°13.636 2°56.019 127.4 -999 131 -999
2012-03-22 07:49:06 51°13.636 2°56.019 127.3 -999 12 -999
2012-03-22 07:49:12 51°13.636 2°56.019 127.3 -999 228 -999
2012-03-22 07:49:16 51°13.636 2°56.019 127.2 -999 221 -999
2012-03-22 07:49:22 51°13.636 2°56.019 127.2 -999 206 -999
2012-03-22 07:49:26 51°13.636 2°56.019 127.2 -999 254 -999
2012-03-22 07:49:31 51°13.636 2°56.018 127.4 -999 241 -999
2012-03-22 07:49:36 51°13.636 2°56.018 127.7 -999 228 -999
2012-03-22 07:49:41 51°13.636 2°56.018 128 0.1 220 -999
2012-03-22 07:49:47 51°13.636 2°56.018 128.3 0.1 209 -999
2012-03-22 07:49:51 51°13.636 2°56.018 128.7 -999 255 -999
2012-03-22 07:49:56 51°13.636 2°56.018 128.9 -999 242 6.9
2012-03-22 07:50:02 51°13.636 2°56.018 129.2 -999 4 -999
2012-03-22 07:50:06 51°13.636 2°56.018 129.3 -999 136 -999
2012-03-22 07:50:11 51°13.636 2°56.018 129.4 -999 128 -999
2012-03-22 07:50:16 51°13.636 2°56.019 129.1 -999 129 -999
2012-03-22 07:50:22 51°13.636 2°56.019 128.5 0.1 89 -999
2012-03-22 07:50:27 51°13.636 2°56.019 127.8 0.1 83 -999
2012-03-22 07:50:32 51°13.636 2°56.019 127 0.1 66 -999
2012-03-22 07:50:36 51°13.636 2°56.019 125.8 0.1 91 -999
2012-03-22 07:50:41 51°13.636 2°56.019 124.8 0.1 164 -999
2012-03-22 07:50:47 51°13.636 2°56.019 123.6 -999 139 -999
2012-03-22 07:50:52 51°13.636 2°56.019 122.7 0.1 183 -999
2012-03-22 07:50:56 51°13.636 2°56.019 122.5 0.1 185 -999
2012-03-22 07:51:01 51°13.636 2°56.019 122 0.1 158 -999
2012-03-22 07:51:06 51°13.636 2°56.019 121.3 -999 184 -999
2012-03-22 07:51:12 51°13.636 2°56.019 120.6 -999 197 -999
2012-03-22 07:51:16 51°13.636 2°56.019 120 0.1 190 -999
2012-03-22 07:51:21 51°13.636 2°56.019 119.4 0.1 198 -999
2012-03-22 07:51:26 51°13.636 2°56.019 118.4 0.1 184 -999
2012-03-22 07:51:31 51°13.636 2°56.019 117.7 0.1 192 -999
2012-03-22 07:51:36 51°13.636 2°56.019 117 0.1 201 -999
2012-03-22 07:51:42 51°13.635 2°56.019 116.2 0.1 208 -999
2012-03-22 07:51:46 51°13.635 2°56.019 115.4 0.1 191 -999
2012-03-22 07:51:51 51°13.635 2°56.019 114.6 0.1 192 -999
2012-03-22 07:51:56 51°13.635 2°56.019 113.7 0.1 199 -999
2012-03-22 07:52:02 51°13.635 2°56.019 112.8 0.1 204 -999
2012-03-22 07:52:07 51°13.635 2°56.019 112 0.1 200 -999
2012-03-22 07:52:11 51°13.635 2°56.019 111.1 0.1 199 -999
2012-03-22 07:52:16 51°13.635 2°56.019 110.4 0.1 192 -999
2012-03-22 07:52:22 51°13.635 2°56.019 109.5 0.1 208 -999
2012-03-22 07:52:27 51°13.634 2°56.018 108.6 0.1 205 -999
2012-03-22 07:52:32 51°13.634 2°56.018 107.8 0.1 203 6.9
2012-03-22 07:52:36 51°13.634 2°56.018 106.9 0.1 204 -999
2012-03-22 07:52:41 51°13.634 2°56.018 106 0.1 241 -999
2012-03-22 07:52:46 51°13.634 2°56.017 105.3 0.4 272 -999
2012-03-22 07:52:51 51°13.635 2°56.016 105 0.9 279 7.2
2012-03-22 07:52:56 51°13.635 2°56.013 104.8 1.3 279 7
2012-03-22 07:53:01 51°13.635 2°56.009 104.8 1.7 282 -999
2012-03-22 07:53:06 51°13.636 2°56.004 105.1 2.1 282 7.2
2012-03-22 07:53:11 51°13.636 2°55.998 105.5 2.6 285 4.8
2012-03-22 07:53:16 51°13.637 2°55.992 106 2.8 284 -999
2012-03-22 07:53:21 51°13.638 2°55.986 106.4 3 286 -999
2012-03-22 07:53:26 51°13.64 2°55.979 106.6 3.2 284 -999
2012-03-22 07:53:31 51°13.641 2°55.972 106.8 3.2 285 -999
2012-03-22 07:53:36 51°13.642 2°55.965 106.9 3.3 285 -999
2012-03-22 07:53:41 51°13.643 2°55.958 107.2 3.4 285 -999
2012-03-22 07:53:46 51°13.644 2°55.95 107.5 3.5 286 -999
2012-03-22 07:53:51 51°13.646 2°55.943 108.1 3.5 286 -999
2012-03-22 07:53:56 51°13.647 2°55.935 108.6 3.6 287 -999
2012-03-22 07:54:01 51°13.648 2°55.928 109.4 3.6 288 -999
2012-03-22 07:54:06 51°13.65 2°55.92 110.1 3.7 288 -999
2012-03-22 07:54:11 51°13.652 2°55.912 111.1 3.7 289 -999
2012-03-22 07:54:16 51°13.653 2°55.905 112.3 3.8 290 -999
2012-03-22 07:54:21 51°13.656 2°55.897 113.1 3.8 291 -999
2012-03-22 07:54:26 51°13.658 2°55.889 114 3.9 292 -999
2012-03-22 07:54:31 51°13.659 2°55.881 115.3 3.9 293 -999
2012-03-22 07:54:36 51°13.662 2°55.873 116.2 3.9 294 -999
2012-03-22 07:54:41 51°13.664 2°55.865 117.6 4 296 -999
2012-03-22 07:54:46 51°13.667 2°55.857 118.9 4 297 -999
2012-03-22 07:54:51 51°13.669 2°55.85 120.6 4 299 -999
2012-03-22 07:54:56 51°13.672 2°55.842 122.2 4 300 -999
2012-03-22 07:55:01 51°13.675 2°55.834 123.5 4.1 302 -999
2012-03-22 07:55:06 51°13.678 2°55.827 125.1 4.1 304 -999
2012-03-22 07:55:11 51°13.681 2°55.819 127.2 4.1 305 -999
2012-03-22 07:55:16 51°13.684 2°55.812 128.4 4.1 307 -999
2012-03-22 07:55:21 51°13.688 2°55.804 129.9 4.2 307 -999
2012-03-22 07:55:26 51°13.692 2°55.797 131.3 4.2 310 -999
2012-03-22 07:55:31 51°13.695 2°55.79 132.6 4.2 310 -999
2012-03-22 07:55:36 51°13.699 2°55.783 133.4 4.2 312 -999
2012-03-22 07:55:41 51°13.704 2°55.776 134.3 4.2 312 -999
2012-03-22 07:55:46 51°13.707 2°55.77 135 4.3 313 -999
2012-03-22 07:55:51 51°13.711 2°55.763 135.5 4.2 313 -999
2012-03-22 07:55:56 51°13.716 2°55.756 135.9 4.3 315 -999
2012-03-22 07:56:01 51°13.72 2°55.749 136.9 4.3 314 -999
2012-03-22 07:56:06 51°13.724 2°55.742 138 4.4 316 -999
2012-03-22 07:56:11 51°13.729 2°55.736 139.3 4.4 316 -999
2012-03-22 07:56:16 51°13.733 2°55.729 140 4.4 318 -999
2012-03-22 07:56:21 51°13.738 2°55.722 140.9 4.5 318 -999
2012-03-22 07:56:26 51°13.742 2°55.716 141.9 4.5 320 -999
2012-03-22 07:56:31 51°13.747 2°55.71 143.1 4.5 320 -999
2012-03-22 07:56:36 51°13.752 2°55.704 144.5 4.6 322 -999
2012-03-22 07:56:41 51°13.757 2°55.697 145.7 4.6 323 -999
2012-03-22 07:56:46 51°13.763 2°55.691 146.7 4.6 324 -999
2012-03-22 07:56:51 51°13.768 2°55.686 147.6 4.6 325 -999
2012-03-22 07:56:56 51°13.773 2°55.68 148.6 4.6 325 -999
2012-03-22 07:57:01 51°13.779 2°55.674 149.4 4.6 327 -999
2012-03-22 07:57:06 51°13.784 2°55.669 150.3 4.6 328 -999
2012-03-22 07:57:11 51°13.79 2°55.663 151 4.6 329 -999
2012-03-22 07:57:16 51°13.795 2°55.658 151.7 4.6 329 -999
2012-03-22 07:57:21 51°13.801 2°55.653 152.3 4.7 331 -999
2012-03-22 07:57:26 51°13.806 2°55.648 153.2 4.7 331 -999
2012-03-22 07:57:31 51°13.812 2°55.643 154 4.7 333 -999
2012-03-22 07:57:36 51°13.818 2°55.638 155 4.6 333 -999
2012-03-22 07:57:41 51°13.824 2°55.634 155.9 4.6 334 -999
2012-03-22 07:57:46 51°13.83 2°55.63 156.9 4.6 334 -999
2012-03-22 07:57:51 51°13.836 2°55.626 157.7 4.6 336 -999
2012-03-22 07:57:56 51°13.842 2°55.621 158.8 4.6 336 -999
2012-03-22 07:58:01 51°13.847 2°55.617 159.8 4.6 337 -999
2012-03-22 07:58:06 51°13.853 2°55.614 161.2 4.5 339 -999
2012-03-22 07:58:11 51°13.859 2°55.611 163.4 4.4 341 -999
2012-03-22 07:58:16 51°13.864 2°55.608 165.2 4.3 342 -999
2012-03-22 07:58:21 51°13.87 2°55.605 167.5 4.2 344 -999
2012-03-22 07:58:26 51°13.875 2°55.603 169.6 4 347 -999
2012-03-22 07:58:31 51°13.881 2°55.601 172 3.9 348 -999
2012-03-22 07:58:36 51°13.886 2°55.6 174.1 3.8 350 -999
2012-03-22 07:58:41 51°13.891 2°55.599 176.4 3.8 352 -999
2012-03-22 07:58:46 51°13.896 2°55.598 178.6 3.7 355 -999
2012-03-22 07:58:51 51°13.901 2°55.597 181 3.6 357 -999
2012-03-22 07:58:56 51°13.906 2°55.597 183.6 3.6 359 -999
2012-03-22 07:59:01 51°13.911 2°55.597 186.3 3.5 2 -999
2012-03-22 07:59:06 51°13.916 2°55.598 189.1 3.4 5 -999
2012-03-22 07:59:11 51°13.92 2°55.599 192.1 3.4 8 -999
2012-03-22 07:59:16 51°13.925 2°55.6 195.1 3.4 11 -999
2012-03-22 07:59:21 51°13.929 2°55.602 198.2 3.3 15 -999
2012-03-22 07:59:26 51°13.934 2°55.604 201.6 3.2 19 -999
2012-03-22 07:59:31 51°13.938 2°55.607 204.8 3.1 21 -999
2012-03-22 07:59:36 51°13.941 2°55.61 207.6 3.1 24 -999
2012-03-22 07:59:41 51°13.945 2°55.613 210.3 3.1 27 -999
2012-03-22 07:59:46 51°13.949 2°55.616 212.8 3.1 30 -999
2012-03-22 07:59:51 51°13.953 2°55.619 215.6 3.1 31 -999
2012-03-22 07:59:56 51°13.956 2°55.623 218 3.1 35 -999
2012-03-22 08:00:01 51°13.96 2°55.627 220.5 3.1 35 -999
2012-03-22 08:00:06 51°13.963 2°55.632 222.9 3 39 -999
2012-03-22 08:00:11 51°13.966 2°55.635 225.3 2.8 39 -999
2012-03-22 08:00:16 51°13.969 2°55.64 227.3 2.7 41 -999
2012-03-22 08:00:21 51°13.972 2°55.643 228.9 2.6 42 -999
2012-03-22 08:00:26 51°13.974 2°55.647 230.4 2.4 44 -999
2012-03-22 08:00:31 51°13.976 2°55.65 232.1 2.1 43 -999
2012-03-22 08:00:36 51°13.978 2°55.653 234 1.7 44 -999
2012-03-22 08:00:41 51°13.979 2°55.655 236.2 1.1 41 -999
2012-03-22 08:00:46 51°13.98 2°55.655 239.3 0.6 30 -999
2012-03-22 08:00:51 51°13.981 2°55.655 243.2 0.3 354 -999
2012-03-22 08:00:56 51°13.981 2°55.655 247.8 0.4 306 -999
2012-03-22 08:01:01 51°13.981 2°55.653 251.9 0.7 281 -999
2012-03-22 08:01:06 51°13.981 2°55.65 257.4 1.2 278 -999
2012-03-22 08:01:11 51°13.982 2°55.647 264.3 1.5 279 -999
2012-03-22 08:01:16 51°13.982 2°55.644 270.4 1.7 282 -999
2012-03-22 08:01:21 51°13.983 2°55.639 276.2 2 285 -999
2012-03-22 08:01:26 51°13.984 2°55.635 282 2.3 289 -999
2012-03-22 08:01:31 51°13.985 2°55.629 287.6 2.6 293 -999
2012-03-22 08:01:36 51°13.987 2°55.624 292.6 2.9 296 -999
2012-03-22 08:01:41 51°13.989 2°55.618 297.7 3.2 301 -999
2012-03-22 08:01:46 51°13.992 2°55.611 302 3.6 303 -999
2012-03-22 08:01:51 51°13.995 2°55.604 305.3 3.8 306 -999
2012-03-22 08:01:56 51°13.998 2°55.597 307.5 4.1 306 -999
2012-03-22 08:02:01 51°14.002 2°55.59 309.2 4.3 308 -999
2012-03-22 08:02:06 51°14.006 2°55.582 310.5 4.7 309 -999
2012-03-22 08:02:11 51°14.01 2°55.573 311.8 4.9 311 9.6
2012-03-22 08:02:16 51°14.015 2°55.565 313.1 5.2 312 -999
2012-03-22 08:02:21 51°14.02 2°55.556 315 5.4 315 -999
2012-03-22 08:02:26 51°14.026 2°55.548 316.8 5.6 316 9.6
2012-03-22 08:02:31 51°14.032 2°55.539 319.3 5.8 319 -999
2012-03-22 08:02:36 51°14.039 2°55.531 320.9 6 319 -999
2012-03-22 08:02:41 51°14.045 2°55.522 321.9 6.2 321 9.5
2012-03-22 08:02:46 51°14.052 2°55.514 323.1 6.4 323 -999
2012-03-22 08:02:51 51°14.06 2°55.505 325.2 6.6 325 -999
2012-03-22 08:02:56 51°14.067 2°55.496 326.1 6.8 324 -999
2012-03-22 08:03:01 51°14.076 2°55.488 327.2 7.1 326 -999
2012-03-22 08:03:06 51°14.084 2°55.478 327.8 7.4 325 -999
2012-03-22 08:03:11 51°14.093 2°55.469 328.3 7.6 327 -999
2012-03-22 08:03:16 51°14.102 2°55.459 328.5 7.7 326 -999
2012-03-22 08:03:21 51°14.111 2°55.45 328.5 7.9 326 -999
2012-03-22 08:03:26 51°14.12 2°55.44 328.9 8.1 327 -999
2012-03-22 08:03:31 51°14.13 2°55.43 329.1 8.2 327 -999
2012-03-22 08:03:36 51°14.14 2°55.421 329.4 8.3 328 -999
2012-03-22 08:03:41 51°14.149 2°55.41 329.4 8.4 326 -999
2012-03-22 08:03:46 51°14.159 2°55.4 329.2 8.4 327 -999
2012-03-22 08:03:51 51°14.169 2°55.39 329.7 8.4 327 -999
2012-03-22 08:03:56 51°14.179 2°55.38 329.8 8.4 327 -999
2012-03-22 08:04:01 51°14.188 2°55.369 329.9 8.5 327 -999
2012-03-22 08:04:06 51°14.199 2°55.359 330.3 8.5 328 -999
2012-03-22 08:04:11 51°14.209 2°55.349 330.7 8.6 328 -999
2012-03-22 08:04:16 51°14.219 2°55.339 331.1 8.6 329 -999
2012-03-22 08:04:21 51°14.229 2°55.33 331.3 8.6 329 -999
2012-03-22 08:04:26 51°14.239 2°55.32 331.5 8.7 330 -999
2012-03-22 08:04:31 51°14.25 2°55.31 332.5 8.7 330 -999
2012-03-22 08:04:36 51°14.261 2°55.301 333 8.7 331 -999
2012-03-22 08:04:41 51°14.271 2°55.291 333 8.8 329 -999
2012-03-22 08:04:46 51°14.282 2°55.282 333 8.8 331 -999
2012-03-22 08:04:51 51°14.292 2°55.271 332.5 8.8 328 -999
2012-03-22 08:04:56 51°14.303 2°55.261 331.8 8.8 329 -999
2012-03-22 08:05:01 51°14.313 2°55.251 331.8 8.9 329 -999
2012-03-22 08:05:06 51°14.324 2°55.241 331.9 8.9 330 -999
2012-03-22 08:05:11 51°14.334 2°55.232 331.9 8.8 330 -999
2012-03-22 08:05:16 51°14.345 2°55.222 331.8 8.9 330 -999
2012-03-22 08:05:21 51°14.356 2°55.212 331.7 8.9 330 -999
2012-03-22 08:05:26 51°14.367 2°55.202 331.2 9 330 28.9
2012-03-22 08:05:31 51°14.377 2°55.192 330.7 9 328 -999
2012-03-22 08:05:36 51°14.388 2°55.181 329.9 9.1 328 -999
2012-03-22 08:05:41 51°14.398 2°55.17 329.2 9.1 327 -999
2012-03-22 08:05:46 51°14.409 2°55.159 329.1 9.2 328 -999
2012-03-22 08:05:51 51°14.42 2°55.148 329.6 9.3 328 -999
2012-03-22 08:05:56 51°14.431 2°55.137 330.3 9.4 328 -999
2012-03-22 08:06:01 51°14.442 2°55.126 330.7 9.5 328 -999
2012-03-22 08:06:06 51°14.453 2°55.115 330.7 9.6 329 9.7
2012-03-22 08:06:11 51°14.465 2°55.104 331.3 9.8 328 9.6
2012-03-22 08:06:16 51°14.476 2°55.092 331.5 10.1 328 -999
2012-03-22 08:06:21 51°14.489 2°55.08 331.3 10.2 329 9.9
2012-03-22 08:06:26 51°14.501 2°55.068 331.8 10.4 328 9.9
2012-03-22 08:06:31 51°14.513 2°55.055 331.6 10.6 328 10.2
2012-03-22 08:06:36 51°14.526 2°55.043 331.6 10.7 327 9.9
2012-03-22 08:06:40 51°14.535 2°55.031 331.8 10.9 323 10.3
2012-03-22 08:06:45 51°14.547 2°55.015 330 11.2 320 10.6
2012-03-22 08:06:50 51°14.559 2°54.999 327.8 11.4 320 11
2012-03-22 08:06:55 51°14.572 2°54.983 327.6 11.6 321 10.9
2012-03-22 08:07:00 51°14.585 2°54.966 328.4 11.8 321 11.1
2012-03-22 08:07:04 51°14.595 2°54.953 328.7 12 321 11.1
2012-03-22 08:07:09 51°14.608 2°54.936 328.4 12.2 321 10.9
2012-03-22 08:07:14 51°14.621 2°54.919 328.9 12.3 322 10.9
2012-03-22 08:07:19 51°14.635 2°54.902 329.1 12.4 322 10.8
2012-03-22 08:07:24 51°14.649 2°54.885 329.4 12.5 322 10.7
2012-03-22 08:07:28 51°14.66 2°54.871 330 12.6 322 10.7
2012-03-22 08:07:33 51°14.673 2°54.854 330.1 12.6 323 10.6
2012-03-22 08:07:38 51°14.688 2°54.838 330.3 12.7 323 10.6
2012-03-22 08:07:43 51°14.702 2°54.821 330.3 12.7 323 10.5
2012-03-22 08:07:48 51°14.716 2°54.805 331.1 12.7 325 10.5
2012-03-22 08:07:53 51°14.73 2°54.788 331.6 12.8 324 10.5
2012-03-22 08:07:58 51°14.745 2°54.771 331.2 12.8 325 10.6
2012-03-22 08:08:03 51°14.759 2°54.755 331.8 12.8 325 10.6
2012-03-22 08:08:08 51°14.774 2°54.739 332.9 12.8 326 10.6
2012-03-22 08:08:12 51°14.786 2°54.726 333 12.8 326 10.7
2012-03-22 08:08:18 51°14.803 2°54.708 332.9 12.8 326 10.7
2012-03-22 08:08:23 51°14.818 2°54.691 333.1 12.8 325 10.7
2012-03-22 08:08:28 51°14.832 2°54.675 332.5 12.8 326 10.8
2012-03-22 08:08:32 51°14.844 2°54.663 332.6 12.8 326 10.8
2012-03-22 08:08:38 51°14.862 2°54.645 334 12.7 329 10.9
2012-03-22 08:08:43 51°14.877 2°54.63 335.9 12.7 329 10.9
2012-03-22 08:08:48 51°14.893 2°54.616 336.4 12.7 330 10.9
2012-03-22 08:08:53 51°14.908 2°54.602 336.9 12.7 330 10.9
2012-03-22 08:08:58 51°14.923 2°54.587 336.9 12.7 329 10.9
2012-03-22 08:09:03 51°14.938 2°54.573 336.3 12.7 329 10.7
2012-03-22 08:09:08 51°14.953 2°54.558 335.7 12.7 329 10.7
2012-03-22 08:09:13 51°14.968 2°54.544 335.6 12.6 331 10.6
2012-03-22 08:09:18 51°14.983 2°54.531 337.6 12.6 332 10.4
2012-03-22 08:09:23 51°14.999 2°54.518 338.4 12.6 332 10.4
2012-03-22 08:09:28 51°15.014 2°54.506 338.8 12.6 333 10.3
2012-03-22 08:09:33 51°15.03 2°54.493 338.5 12.6 332 10.2
2012-03-22 08:09:38 51°15.046 2°54.481 339.1 12.5 334 10
2012-03-22 08:09:43 51°15.061 2°54.469 340.5 12.5 335 9.7
2012-03-22 08:09:48 51°15.077 2°54.458 341.9 12.4 337 9.4
2012-03-22 08:09:53 51°15.093 2°54.448 343.7 12.3 337 9.4
2012-03-22 08:09:58 51°15.109 2°54.437 344 12.3 337 9.1
2012-03-22 08:10:03 51°15.124 2°54.427 344.3 12.3 338 8.8
2012-03-22 08:10:08 51°15.14 2°54.417 345.2 12.2 338 8.7
2012-03-22 08:10:12 51°15.153 2°54.409 345.8 12.1 340 8.6
2012-03-22 08:10:18 51°15.172 2°54.399 347 12.1 341 8.6
2012-03-22 08:10:23 51°15.188 2°54.391 348.3 12.1 343 8.6
2012-03-22 08:10:28 51°15.204 2°54.384 350.1 12 345 8.4
2012-03-22 08:10:32 51°15.217 2°54.379 352.7 12 346 8.5
2012-03-22 08:10:38 51°15.237 2°54.372 353.7 12 346 8.8
2012-03-22 08:10:43 51°15.253 2°54.366 354.2 12 347 8.4
2012-03-22 08:10:48 51°15.269 2°54.36 354.8 12 347 8.4
2012-03-22 08:10:52 51°15.282 2°54.355 355 11.9 348 8.4
2012-03-22 08:10:58 51°15.301 2°54.349 355.2 11.9 347 8.4
2012-03-22 08:11:03 51°15.317 2°54.343 355.1 11.9 348 8.4
2012-03-22 08:11:08 51°15.334 2°54.337 355 12 348 8.5
2012-03-22 08:11:13 51°15.35 2°54.332 355.1 12 348 8.6
2012-03-22 08:11:18 51°15.366 2°54.327 355.4 12 348 8.7
2012-03-22 08:11:23 51°15.383 2°54.322 355.7 12 349 8.7
2012-03-22 08:11:28 51°15.399 2°54.317 356 12.1 349 8.8
2012-03-22 08:11:33 51°15.416 2°54.312 356.3 12.1 349 8.8
2012-03-22 08:11:38 51°15.432 2°54.306 356.3 12.1 349 8.8
2012-03-22 08:11:43 51°15.448 2°54.301 355.9 12.1 349 8.8
2012-03-22 08:11:48 51°15.465 2°54.296 355.8 12.1 349 8.9
2012-03-22 08:11:53 51°15.481 2°54.291 355.7 12.1 349 9
2012-03-22 08:11:58 51°15.498 2°54.286 355.7 12.1 349 9.1
2012-03-22 08:12:03 51°15.514 2°54.281 356 12.1 349 9.1
2012-03-22 08:12:08 51°15.531 2°54.276 356.5 12.1 349 9.1
2012-03-22 08:12:13 51°15.547 2°54.271 356.7 12.1 350 9.2
2012-03-22 08:12:18 51°15.564 2°54.267 357.2 12.1 350 9.3
2012-03-22 08:12:23 51°15.58 2°54.263 357.9 12 351 9.4
2012-03-22 08:12:28 51°15.597 2°54.259 358.6 12 352 9.4
2012-03-22 08:12:32 51°15.61 2°54.257 359.5 12 353 9.5
2012-03-22 08:12:38 51°15.63 2°54.253 0.3 12 354 9.6
2012-03-22 08:12:43 51°15.647 2°54.25 1 12 355 9.4
2012-03-22 08:12:48 51°15.663 2°54.249 2.3 12 356 9.4
2012-03-22 08:12:52 51°15.676 2°54.247 3.6 11.9 357 9.4
2012-03-22 08:12:58 51°15.696 2°54.246 4.7 11.9 357 9.4
2012-03-22 08:13:03 51°15.713 2°54.244 4.7 12 356 9.5
2012-03-22 08:13:08 51°15.729 2°54.242 3.8 11.9 355 9.5
2012-03-22 08:13:12 51°15.742 2°54.24 2.9 11.9 355 9.5
2012-03-22 08:13:18 51°15.762 2°54.237 2.6 11.9 354 9.6
2012-03-22 08:13:23 51°15.779 2°54.234 2.2 11.9 354 9.5
2012-03-22 08:13:28 51°15.795 2°54.231 2.1 11.9 354 9.6
2012-03-22 08:13:33 51°15.812 2°54.228 2.1 11.9 354 9.6
2012-03-22 08:13:38 51°15.828 2°54.226 2.1 11.9 354 9.6
2012-03-22 08:13:43 51°15.844 2°54.223 1.8 11.9 354 9.6
2012-03-22 08:13:48 51°15.861 2°54.22 1.8 11.9 354 9.6
2012-03-22 08:13:53 51°15.877 2°54.217 1.6 11.9 353 9.7
2012-03-22 08:13:58 51°15.894 2°54.214 1.1 11.9 352 9.7
2012-03-22 08:14:03 51°15.91 2°54.209 0.1 12 351 9.8
2012-03-22 08:14:08 51°15.926 2°54.205 358.7 12 351 9.9
2012-03-22 08:14:13 51°15.943 2°54.2 357.8 12 349 9.9
2012-03-22 08:14:18 51°15.959 2°54.195 357.1 12 349 9.8
2012-03-22 08:14:23 51°15.975 2°54.189 356.2 12 347 9.9
2012-03-22 08:14:28 51°15.992 2°54.184 355.8 12 348 10
2012-03-22 08:14:33 51°16.008 2°54.178 355.8 11.8 348 10.1
2012-03-22 08:14:38 51°16.023 2°54.174 356.1 11.1 349 10
2012-03-22 08:14:43 51°16.038 2°54.17 356.7 10.7 351 10.2
2012-03-22 08:14:48 51°16.052 2°54.167 358.2 10.3 353 10.2
2012-03-22 08:14:52 51°16.062 2°54.165 0.3 9.7 354 10.2
2012-03-22 08:14:58 51°16.077 2°54.162 1.7 9.1 354 10.2
2012-03-22 08:15:03 51°16.089 2°54.161 2.4 8.5 354 10.4
2012-03-22 08:15:08 51°16.1 2°54.159 3.7 8 355 10.4
2012-03-22 08:15:12 51°16.109 2°54.158 4.7 7.5 355 10.4
2012-03-22 08:15:18 51°16.121 2°54.156 5.5 7.1 355 10.4
2012-03-22 08:15:23 51°16.13 2°54.155 6.1 6.8 355 10.4
2012-03-22 08:15:28 51°16.139 2°54.153 6.4 6.5 354 10.4
2012-03-22 08:15:32 51°16.146 2°54.152 6.5 6.2 354 10.4
2012-03-22 08:15:38 51°16.156 2°54.15 6.6 6 353 10.4
2012-03-22 08:15:43 51°16.164 2°54.149 6.6 5.8 353 10.5
2012-03-22 08:15:48 51°16.171 2°54.147 6.2 5.6 351 10.5
2012-03-22 08:15:53 51°16.179 2°54.145 5.7 5.5 350 10.6
2012-03-22 08:15:58 51°16.186 2°54.142 4.7 5.3 347 10.6
2012-03-22 08:16:03 51°16.193 2°54.14 3.7 5.2 345 10.5
2012-03-22 08:16:08 51°16.2 2°54.136 2.3 5.1 344 10.6
2012-03-22 08:16:13 51°16.207 2°54.133 1.4 5 344 10.6
2012-03-22 08:16:18 51°16.213 2°54.13 0.8 4.9 343 10.7
2012-03-22 08:16:23 51°16.219 2°54.127 0.7 4.8 344 10.7
2012-03-22 08:16:28 51°16.226 2°54.125 1.8 4.6 346 10.6
2012-03-22 08:16:32 51°16.23 2°54.123 4.1 4.4 349 10.6
2012-03-22 08:16:38 51°16.237 2°54.122 7 4.2 354 10.7
2012-03-22 08:16:43 51°16.242 2°54.121 10.6 3.9 357 10.7
2012-03-22 08:16:48 51°16.247 2°54.122 14.2 3.6 4 10.7
2012-03-22 08:16:52 51°16.251 2°54.122 20.4 3.3 8 10.8
2012-03-22 08:16:58 51°16.256 2°54.124 25.5 3 15 10.8
2012-03-22 08:17:03 51°16.26 2°54.126 30.7 2.9 22 10.7
2012-03-22 08:17:08 51°16.263 2°54.129 35.7 2.6 30 10.8
2012-03-22 08:17:12 51°16.265 2°54.132 41.1 2.4 37 10.9
2012-03-22 08:17:18 51°16.268 2°54.136 46.1 2.3 45 10.9
2012-03-22 08:17:23 51°16.27 2°54.14 51.3 2.2 53 10.9
2012-03-22 08:17:28 51°16.271 2°54.144 55.2 2.2 61 10.9
2012-03-22 08:17:32 51°16.272 2°54.148 61.1 2.1 67 10.9
2012-03-22 08:17:38 51°16.273 2°54.153 64.8 2.2 76 10.9
2012-03-22 08:17:43 51°16.274 2°54.159 69.6 2.4 79 11.1
2012-03-22 08:17:48 51°16.274 2°54.164 72.4 2.6 83 11
2012-03-22 08:17:53 51°16.275 2°54.171 75.1 2.8 84 11
2012-03-22 08:17:58 51°16.275 2°54.177 76.8 3.1 86 10.8
2012-03-22 08:18:03 51°16.275 2°54.185 77.9 3.3 88 11
2012-03-22 08:18:08 51°16.275 2°54.192 79.5 3.5 88 11
2012-03-22 08:18:13 51°16.275 2°54.201 80.1 3.7 89 10.8
2012-03-22 08:18:18 51°16.276 2°54.209 80.5 3.9 88 10.7
2012-03-22 08:18:23 51°16.276 2°54.219 80.6 4 89 10.7
2012-03-22 08:18:28 51°16.276 2°54.228 80.7 4.1 89 10.8
2012-03-22 08:18:33 51°16.277 2°54.238 81 4.3 88 10.7
2012-03-22 08:18:38 51°16.277 2°54.248 80.8 4.4 89 10.7
2012-03-22 08:18:43 51°16.277 2°54.258 81 4.5 88 10.7
2012-03-22 08:18:48 51°16.277 2°54.268 80.9 4.7 89 10.8
2012-03-22 08:18:53 51°16.278 2°54.278 81.2 4.7 88 10.6
2012-03-22 08:18:58 51°16.278 2°54.289 81.4 4.8 90 10.8
2012-03-22 08:19:03 51°16.278 2°54.3 81.4 4.8 89 10.7
2012-03-22 08:19:08 51°16.278 2°54.31 81.4 4.4 90 10.7
2012-03-22 08:19:12 51°16.278 2°54.317 81.5 4 92 10.7
2012-03-22 08:19:18 51°16.277 2°54.326 81.1 3.5 93 10.7
2012-03-22 08:19:23 51°16.277 2°54.333 82.1 3.2 100 10.7
2012-03-22 08:19:28 51°16.275 2°54.34 84.3 2.9 106 10.6
2012-03-22 08:19:32 51°16.274 2°54.344 88.7 2.6 115 10.7
2012-03-22 08:19:38 51°16.272 2°54.349 92.2 2.4 122 10.6
2012-03-22 08:19:43 51°16.269 2°54.353 97.3 2.2 135 10.8
2012-03-22 08:19:48 51°16.267 2°54.356 102 2.1 141 10.7
2012-03-22 08:19:52 51°16.265 2°54.357 106.8 2.1 152 10.5
2012-03-22 08:19:58 51°16.262 2°54.359 110.8 2 160 10.6
2012-03-22 08:20:03 51°16.26 2°54.36 116.2 2 171 10.7
2012-03-22 08:20:08 51°16.257 2°54.36 120.3 1.9 177 10.6
2012-03-22 08:20:13 51°16.254 2°54.36 124.2 1.8 186 10.6
2012-03-22 08:20:18 51°16.252 2°54.359 128.2 1.7 193 10.6
2012-03-22 08:20:23 51°16.25 2°54.357 132.1 1.7 204 10.7
2012-03-22 08:20:28 51°16.248 2°54.356 135.5 1.6 209 10.6
2012-03-22 08:20:33 51°16.246 2°54.353 138.9 1.6 217 10.7
2012-03-22 08:20:38 51°16.244 2°54.351 142 1.6 225 10.6
2012-03-22 08:20:43 51°16.243 2°54.347 144.5 1.6 230 10.6
2012-03-22 08:20:48 51°16.242 2°54.344 147.7 1.7 230 10.7
2012-03-22 08:20:53 51°16.241 2°54.341 150 1.6 230 10.6
2012-03-22 08:20:58 51°16.239 2°54.338 151.5 1.7 231 10.7
2012-03-22 08:21:03 51°16.238 2°54.335 153.6 1.7 230 10.7
2012-03-22 08:21:08 51°16.236 2°54.332 154.9 1.7 231 10.7
2012-03-22 08:21:13 51°16.235 2°54.329 156.8 1.7 231 10.7
2012-03-22 08:21:18 51°16.233 2°54.327 158.3 1.7 232 10.6
2012-03-22 08:21:23 51°16.231 2°54.325 159.7 1.7 232 10.7
2012-03-22 08:21:28 51°16.23 2°54.322 161.2 1.7 231 10.7
2012-03-22 08:21:32 51°16.228 2°54.32 162.7 1.7 231 10.6
2012-03-22 08:21:38 51°16.227 2°54.316 164.6 1.7 231 10.7
2012-03-22 08:21:43 51°16.225 2°54.313 165.7 1.7 231 10.6
2012-03-22 08:21:48 51°16.224 2°54.31 167.4 1.8 232 10.7
2012-03-22 08:21:52 51°16.222 2°54.308 169.1 1.7 232 10.7
2012-03-22 08:21:58 51°16.22 2°54.304 170.3 1.8 231 10.6
2012-03-22 08:22:03 51°16.219 2°54.301 171.8 1.8 232 10.6
2012-03-22 08:22:08 51°16.217 2°54.298 173.5 1.8 232 10.7
2012-03-22 08:22:13 51°16.216 2°54.294 174.5 1.8 232 10.7
2012-03-22 08:22:18 51°16.215 2°54.291 176.3 1.8 232 10.7
2012-03-22 08:22:23 51°16.213 2°54.288 177.3 1.8 231 10.7
2012-03-22 08:22:28 51°16.211 2°54.285 178.6 1.8 232 10.6
2012-03-22 08:22:33 51°16.21 2°54.282 180.3 1.8 231 10.7
2012-03-22 08:22:38 51°16.208 2°54.279 181.4 1.8 232 10.6
2012-03-22 08:22:43 51°16.207 2°54.276 182.9 1.8 231 10.7
2012-03-22 08:22:48 51°16.205 2°54.273 183.9 1.8 231 10.7
2012-03-22 08:22:53 51°16.204 2°54.27 185.2 1.8 231 10.6
2012-03-22 08:22:58 51°16.202 2°54.267 186.5 1.8 232 10.7
2012-03-22 08:23:03 51°16.2 2°54.264 187.8 1.8 232 10.6
2012-03-22 08:23:08 51°16.199 2°54.261 189.2 1.8 232 10.7
2012-03-22 08:23:12 51°16.198 2°54.258 190.5 1.8 231 10.7
2012-03-22 08:23:18 51°16.196 2°54.254 191.5 1.8 232 10.7
2012-03-22 08:23:23 51°16.194 2°54.251 192.7 1.8 231 10.7
2012-03-22 08:23:28 51°16.193 2°54.248 194 1.8 232 10.7
2012-03-22 08:23:33 51°16.191 2°54.245 195.4 1.8 231 10.7
2012-03-22 08:23:38 51°16.189 2°54.242 196.5 1.8 233 10.7
2012-03-22 08:23:43 51°16.188 2°54.239 197.7 1.8 231 10.7
2012-03-22 08:23:48 51°16.186 2°54.235 199 1.8 233 10.7
2012-03-22 08:23:52 51°16.185 2°54.232 200.3 1.8 231 10.6
2012-03-22 08:23:58 51°16.184 2°54.228 201.5 1.8 232 10.7
2012-03-22 08:24:03 51°16.182 2°54.225 202.7 1.8 232 10.6
2012-03-22 08:24:08 51°16.181 2°54.222 203.9 1.8 233 10.6
2012-03-22 08:24:12 51°16.179 2°54.219 205.2 1.8 233 10.6
2012-03-22 08:24:18 51°16.177 2°54.215 206.4 1.8 232 10.6
2012-03-22 08:24:23 51°16.176 2°54.212 207.5 1.8 233 10.6
2012-03-22 08:24:28 51°16.174 2°54.209 208.8 1.8 230 10.6
2012-03-22 08:24:33 51°16.173 2°54.206 209.8 1.9 233 10.6
2012-03-22 08:24:38 51°16.171 2°54.203 211.1 1.8 231 10.6
2012-03-22 08:24:43 51°16.169 2°54.199 212.3 1.9 235 10.6
2012-03-22 08:24:48 51°16.168 2°54.196 213.4 1.8 231 10.6
2012-03-22 08:24:53 51°16.166 2°54.193 214.5 1.9 235 10.7
2012-03-22 08:24:58 51°16.165 2°54.19 215.7 1.8 231 10.6
2012-03-22 08:25:03 51°16.163 2°54.186 217.1 1.9 235 10.6
2012-03-22 08:25:08 51°16.161 2°54.183 218.1 1.9 231 10.6
2012-03-22 08:25:12 51°16.16 2°54.181 219.5 1.9 234 10.5
2012-03-22 08:25:18 51°16.158 2°54.177 220.7 1.8 231 10.6
2012-03-22 08:25:23 51°16.157 2°54.174 222.2 1.8 234 10.6
2012-03-22 08:25:28 51°16.155 2°54.17 223.2 1.9 235 10.6
2012-03-22 08:25:32 51°16.154 2°54.168 224.6 1.9 233 10.7
2012-03-22 08:25:38 51°16.152 2°54.164 225.8 1.9 233 10.7
2012-03-22 08:25:43 51°16.15 2°54.16 227.1 1.9 234 10.6
2012-03-22 08:25:48 51°16.149 2°54.157 228.4 1.9 233 10.6
2012-03-22 08:25:53 51°16.147 2°54.153 229.7 1.9 234 10.6
2012-03-22 08:25:58 51°16.146 2°54.15 230.9 1.9 235 10.6
2012-03-22 08:26:03 51°16.144 2°54.147 232.3 1.9 233 10.6
2012-03-22 08:26:08 51°16.143 2°54.143 233.8 1.9 234 10.6
2012-03-22 08:26:12 51°16.141 2°54.141 235.1 1.9 234 10.6
2012-03-22 08:26:18 51°16.14 2°54.137 236.4 1.9 235 10.6
2012-03-22 08:26:23 51°16.138 2°54.133 237.6 1.9 235 10.6
2012-03-22 08:26:28 51°16.137 2°54.13 239 1.9 235 10.6
2012-03-22 08:26:32 51°16.135 2°54.127 240.3 1.9 235 10.7
2012-03-22 08:26:38 51°16.134 2°54.123 241.4 1.9 235 10.6
2012-03-22 08:26:43 51°16.132 2°54.12 242.6 1.9 234 10.7
2012-03-22 08:26:48 51°16.131 2°54.116 243.8 1.9 237 10.6
2012-03-22 08:26:53 51°16.129 2°54.113 244.9 1.9 232 10.7
2012-03-22 08:26:58 51°16.128 2°54.11 246.1 1.9 236 10.6
2012-03-22 08:27:03 51°16.126 2°54.106 247.1 1.9 234 10.7
2012-03-22 08:27:08 51°16.125 2°54.103 248.1 1.9 236 10.7
2012-03-22 08:27:13 51°16.123 2°54.099 249.1 1.9 235 10.6
2012-03-22 08:27:18 51°16.121 2°54.096 250.2 1.9 235 10.7
2012-03-22 08:27:23 51°16.12 2°54.093 251.2 1.9 235 10.6
2012-03-22 08:27:28 51°16.118 2°54.089 252.3 1.9 236 10.7
2012-03-22 08:27:32 51°16.117 2°54.087 253.2 1.9 235 10.6
2012-03-22 08:27:38 51°16.115 2°54.083 254.2 1.9 235 10.7
2012-03-22 08:27:43 51°16.114 2°54.079 255.1 1.9 235 10.6
2012-03-22 08:27:48 51°16.112 2°54.076 256.2 1.9 236 10.6
2012-03-22 08:27:53 51°16.111 2°54.072 257 1.9 234 10.7
2012-03-22 08:27:58 51°16.109 2°54.069 258.1 1.9 234 10.7
2012-03-22 08:28:03 51°16.108 2°54.065 258.8 2 239 10.6
2012-03-22 08:28:08 51°16.106 2°54.061 259.3 2.2 238 10.7
2012-03-22 08:28:12 51°16.105 2°54.057 258.9 2.4 241 10.7
2012-03-22 08:28:18 51°16.103 2°54.052 258.8 2.5 240 10.6
2012-03-22 08:28:23 51°16.101 2°54.046 259.3 2.6 245 10.6
2012-03-22 08:28:28 51°16.099 2°54.041 261 2.7 244 10.6
2012-03-22 08:28:32 51°16.098 2°54.036 263.5 2.8 248 10.6
2012-03-22 08:28:38 51°16.096 2°54.029 266.3 2.9 247 10.6
2012-03-22 08:28:43 51°16.095 2°54.023 269.6 2.9 252 10.6
2012-03-22 08:28:48 51°16.094 2°54.017 273 3.1 253 10.6
2012-03-22 08:28:52 51°16.093 2°54.011 276.6 3.2 258 10.7
2012-03-22 08:28:58 51°16.092 2°54.003 280.8 3.3 260 10.7
2012-03-22 08:29:03 51°16.092 2°53.995 285.1 3.4 265 10.6
2012-03-22 08:29:08 51°16.091 2°53.987 290.1 3.5 268 10.7
2012-03-22 08:29:13 51°16.092 2°53.98 295.4 3.5 272 10.7
2012-03-22 08:29:18 51°16.092 2°53.972 300.6 3.4 278 10.6
2012-03-22 08:29:23 51°16.093 2°53.965 306.1 3.4 282 10.7
2012-03-22 08:29:28 51°16.095 2°53.958 311.9 3.4 287 10.8
2012-03-22 08:29:33 51°16.096 2°53.951 317.8 3.3 292 10.7
2012-03-22 08:29:38 51°16.098 2°53.945 323.8 3.1 298 10.8
2012-03-22 08:29:43 51°16.101 2°53.939 329.6 3 302 10.7
2012-03-22 08:29:48 51°16.103 2°53.934 335.4 3 307 10.8
2012-03-22 08:29:53 51°16.106 2°53.929 340.6 3 312 10.8
2012-03-22 08:29:58 51°16.11 2°53.924 344.9 3.5 319 10.7
2012-03-22 08:30:03 51°16.114 2°53.918 346.7 4.1 323 11
2012-03-22 08:30:08 51°16.12 2°53.913 347 4.8 326 11
2012-03-22 08:30:13 51°16.126 2°53.906 345.7 5.4 327 10.8
2012-03-22 08:30:18 51°16.133 2°53.899 344.5 5.9 329 10.8
2012-03-22 08:30:23 51°16.14 2°53.892 343.6 6.4 329 10.8
2012-03-22 08:30:28 51°16.149 2°53.884 343.3 6.8 330 10.8
2012-03-22 08:30:32 51°16.155 2°53.878 342.9 7.2 329 10.8
2012-03-22 08:30:38 51°16.166 2°53.868 342.1 7.5 329 10.8
2012-03-22 08:30:43 51°16.175 2°53.858 340.8 7.8 327 10.9
2012-03-22 08:30:48 51°16.184 2°53.848 339 8 325 10.9
2012-03-22 08:30:52 51°16.191 2°53.839 337 8.2 323 11
2012-03-22 08:30:58 51°16.202 2°53.826 335.4 8.4 322 11
2012-03-22 08:31:03 51°16.212 2°53.814 334.2 8.5 322 10.9
2012-03-22 08:31:08 51°16.221 2°53.802 333.5 8.6 321 11
2012-03-22 08:31:12 51°16.228 2°53.793 332.6 8.7 321 11.1
2012-03-22 08:31:18 51°16.24 2°53.778 331.7 8.8 321 11.2
2012-03-22 08:31:23 51°16.25 2°53.765 331.2 9.1 321 11.2
2012-03-22 08:31:28 51°16.26 2°53.752 330.9 9.4 321 11.4
2012-03-22 08:31:33 51°16.27 2°53.738 330 9.7 320 11.3
2012-03-22 08:31:38 51°16.281 2°53.724 329.5 9.9 320 11.2
2012-03-22 08:31:43 51°16.291 2°53.71 328.9 10.1 319 11.4
2012-03-22 08:31:48 51°16.302 2°53.694 327.7 10.3 317 11.6
2012-03-22 08:31:53 51°16.312 2°53.678 326.1 10.5 317 11.5
2012-03-22 08:31:58 51°16.323 2°53.662 325.6 10.6 317 11.5
2012-03-22 08:32:03 51°16.334 2°53.646 325.6 10.7 317 11.6
2012-03-22 08:32:08 51°16.345 2°53.63 325.6 10.8 317 11.6
2012-03-22 08:32:13 51°16.356 2°53.613 326.1 10.9 317 11.6
2012-03-22 08:32:18 51°16.367 2°53.597 326.4 10.9 317 11.5
2012-03-22 08:32:23 51°16.378 2°53.58 326.2 11 317 11.5
2012-03-22 08:32:28 51°16.389 2°53.563 325.2 11 316 11.6
2012-03-22 08:32:32 51°16.398 2°53.55 324.7 11 316 11.5
2012-03-22 08:32:38 51°16.411 2°53.529 324.7 11.1 316 11.5
2012-03-22 08:32:43 51°16.422 2°53.512 324.4 11.1 316 11.6
2012-03-22 08:32:48 51°16.433 2°53.495 324.2 11.1 316 11.6
2012-03-22 08:32:52 51°16.442 2°53.482 324.2 11.1 316 11.5
2012-03-22 08:32:58 51°16.455 2°53.461 324.6 11.1 317 11.6
2012-03-22 08:33:03 51°16.466 2°53.445 325.1 11.1 317 11.6
2012-03-22 08:33:08 51°16.478 2°53.428 325.3 11 317 11.6
2012-03-22 08:33:12 51°16.487 2°53.415 325.6 11 318 11.7
2012-03-22 08:33:18 51°16.5 2°53.395 325.7 11 318 11.7
2012-03-22 08:33:23 51°16.512 2°53.379 325.8 11 318 11.7
2012-03-22 08:33:28 51°16.523 2°53.362 326 11 317 11.6
2012-03-22 08:33:32 51°16.532 2°53.349 325.6 11 317 11.6
2012-03-22 08:33:38 51°16.545 2°53.33 325.9 10.9 318 11.5
2012-03-22 08:33:43 51°16.556 2°53.314 326.2 10.9 318 11.5
2012-03-22 08:33:48 51°16.568 2°53.298 326.7 10.9 319 11.4
2012-03-22 08:33:53 51°16.579 2°53.282 326.9 10.9 319 11.5
2012-03-22 08:33:58 51°16.591 2°53.267 327.4 10.9 320 11.6
2012-03-22 08:34:03 51°16.602 2°53.252 328.1 10.9 321 11.6
2012-03-22 08:34:08 51°16.614 2°53.236 328.5 10.9 320 11.5
2012-03-22 08:34:13 51°16.626 2°53.221 328.6 10.9 320 11.4
2012-03-22 08:34:18 51°16.637 2°53.205 328.2 10.9 319 11.3
2012-03-22 08:34:23 51°16.649 2°53.189 327.7 10.9 320 11.2
2012-03-22 08:34:28 51°16.66 2°53.175 328.1 10.8 321 11.2
2012-03-22 08:34:33 51°16.672 2°53.16 329.9 10.8 324 11.1
2012-03-22 08:34:38 51°16.685 2°53.147 331.8 10.7 325 11
2012-03-22 08:34:43 51°16.697 2°53.133 332.9 10.9 326 11
2012-03-22 08:34:48 51°16.71 2°53.12 333.7 11.1 327 10.9
2012-03-22 08:34:53 51°16.723 2°53.106 334.1 11.3 327 10.8
2012-03-22 08:34:58 51°16.737 2°53.093 334.5 11.5 328 10.8
2012-03-22 08:35:03 51°16.75 2°53.079 334.9 11.7 327 10.7
2012-03-22 08:35:08 51°16.764 2°53.065 335.1 11.8 328 10.5
2012-03-22 08:35:12 51°16.775 2°53.053 333.6 12 324 10.3
2012-03-22 08:35:18 51°16.791 2°53.035 332.1 11.9 325 10.1
2012-03-22 08:35:23 51°16.804 2°53.018 331.1 12.1 322 9.7
2012-03-22 08:35:28 51°16.817 2°53.002 329.8 12 323 9.4
2012-03-22 08:35:32 51°16.828 2°52.989 329.5 12 322 8.9
2012-03-22 08:35:38 51°16.843 2°52.969 329 11.9 321 8.7
2012-03-22 08:35:43 51°16.856 2°52.952 328.4 11.9 320 8.5
2012-03-22 08:35:48 51°16.869 2°52.935 327.4 11.9 319 8.5
2012-03-22 08:35:53 51°16.881 2°52.918 326.9 11.9 319 8.4
2012-03-22 08:35:58 51°16.893 2°52.9 326.7 12 319 8.4
2012-03-22 08:36:03 51°16.906 2°52.883 326.7 12 319 8.6
2012-03-22 08:36:08 51°16.919 2°52.866 326.7 12.1 320 8.7
2012-03-22 08:36:13 51°16.932 2°52.848 327.4 12.1 320 8.8
2012-03-22 08:36:18 51°16.945 2°52.831 328 12.2 320 8.9
2012-03-22 08:36:23 51°16.958 2°52.814 328 12.2 320 8.9
2012-03-22 08:36:28 51°16.971 2°52.797 328 12.3 320 9
2012-03-22 08:36:33 51°16.984 2°52.779 327.9 12.3 320 9.1
2012-03-22 08:36:38 51°16.997 2°52.761 327.5 12.4 320 9.3
2012-03-22 08:36:43 51°17.01 2°52.744 327.6 12.3 321 9.4
2012-03-22 08:36:48 51°17.024 2°52.727 328 12.4 321 9.5
2012-03-22 08:36:53 51°17.037 2°52.71 328.6 12.4 321 9.6
2012-03-22 08:36:58 51°17.05 2°52.692 328.5 12.4 319 9.6
2012-03-22 08:37:03 51°17.062 2°52.672 326.1 12.5 315 9.5
2012-03-22 08:37:08 51°17.075 2°52.653 324.6 12.4 317 9.3
2012-03-22 08:37:12 51°17.085 2°52.638 323.8 12.4 315 9.2
2012-03-22 08:37:18 51°17.099 2°52.615 322.7 12.3 314 9.1
2012-03-22 08:37:23 51°17.111 2°52.595 322.1 12.3 314 9.2
2012-03-22 08:37:28 51°17.123 2°52.575 321.6 12.3 314 9.2
2012-03-22 08:37:32 51°17.132 2°52.56 322 12.3 315 9.2
2012-03-22 08:37:38 51°17.147 2°52.537 322.6 12.3 315 9.4
2012-03-22 08:37:43 51°17.159 2°52.518 323.3 12.4 316 9.5
2012-03-22 08:37:48 51°17.171 2°52.499 323.6 12.4 316 9.5
2012-03-22 08:37:52 51°17.181 2°52.484 323.9 12.4 317 9.5
2012-03-22 08:37:58 51°17.196 2°52.461 324.2 12.4 316 9.6
2012-03-22 08:38:03 51°17.209 2°52.443 324.1 12.4 317 9.5
2012-03-22 08:38:08 51°17.221 2°52.424 324.2 12.4 317 9.7
2012-03-22 08:38:13 51°17.234 2°52.405 324.5 12.4 317 9.7
2012-03-22 08:38:18 51°17.246 2°52.386 324.8 12.4 317 9.9
2012-03-22 08:38:23 51°17.259 2°52.368 325.2 12.4 317 9.9
2012-03-22 08:38:28 51°17.271 2°52.349 325.1 12.4 317 10
2012-03-22 08:38:33 51°17.284 2°52.33 324.9 12.4 317 10.2
2012-03-22 08:38:38 51°17.297 2°52.312 325 12.4 318 10.1
2012-03-22 08:38:43 51°17.31 2°52.293 325.6 12.4 318 10.1
2012-03-22 08:38:48 51°17.322 2°52.275 325.6 12.4 318 10.3
2012-03-22 08:38:53 51°17.335 2°52.257 325.8 12.4 319 10.6
2012-03-22 08:38:58 51°17.348 2°52.239 326.3 12.4 319 10.8
2012-03-22 08:39:03 51°17.361 2°52.221 326.7 12.5 319 11
2012-03-22 08:39:08 51°17.374 2°52.203 326.9 12.5 319 10.9
2012-03-22 08:39:13 51°17.388 2°52.185 327.1 12.4 319 10.9
2012-03-22 08:39:18 51°17.401 2°52.167 327.1 12.4 320 11
2012-03-22 08:39:23 51°17.414 2°52.149 326.8 12.4 320 10.9
2012-03-22 08:39:28 51°17.427 2°52.133 328 12.3 322 10.9
2012-03-22 08:39:32 51°17.438 2°52.12 329.2 12.3 322 10.9
2012-03-22 08:39:38 51°17.455 2°52.101 330.5 12.3 325 11.1
2012-03-22 08:39:43 51°17.469 2°52.085 331.7 12.3 325 11
2012-03-22 08:39:48 51°17.483 2°52.071 332.7 12.2 327 10.9
2012-03-22 08:39:52 51°17.494 2°52.059 334.1 12.2 328 10.9
2012-03-22 08:39:58 51°17.511 2°52.042 335.3 12.2 329 10.8
2012-03-22 08:40:03 51°17.526 2°52.028 336 12.1 329 10.6
2012-03-22 08:40:08 51°17.54 2°52.015 336.9 12.1 330 10.4
2012-03-22 08:40:12 51°17.552 2°52.004 337.1 12.1 329 10.2
2012-03-22 08:40:18 51°17.569 2°51.987 337.1 12.1 329 10.1
2012-03-22 08:40:23 51°17.584 2°51.973 336.9 12.1 329 10.2
2012-03-22 08:40:28 51°17.598 2°51.96 336.7 12.1 329 10
2012-03-22 08:40:33 51°17.612 2°51.946 336.7 12.1 329 10.1
2012-03-22 08:40:38 51°17.627 2°51.932 336.6 12.1 329 10
2012-03-22 08:40:43 51°17.641 2°51.917 336.3 12.1 328 10
2012-03-22 08:40:48 51°17.655 2°51.903 336.1 12.1 328 9.9
2012-03-22 08:40:53 51°17.669 2°51.889 335.7 12.1 327 9.9
2012-03-22 08:40:58 51°17.684 2°51.875 335.4 12.1 328 9.9
2012-03-22 08:41:03 51°17.698 2°51.86 335.7 12.1 327 9.9
2012-03-22 08:41:08 51°17.712 2°51.846 335.7 12.1 328 9.8
2012-03-22 08:41:13 51°17.726 2°51.831 335.7 12.2 327 9.8
2012-03-22 08:41:18 51°17.741 2°51.817 335.6 12.1 328 9.8
2012-03-22 08:41:23 51°17.755 2°51.803 335.9 12.1 328 9.8
2012-03-22 08:41:28 51°17.769 2°51.788 335.8 12.2 327 9.8
2012-03-22 08:41:33 51°17.783 2°51.774 335.2 12.2 327 9.8
2012-03-22 08:41:38 51°17.797 2°51.759 334.9 12.2 327 9.8
2012-03-22 08:41:43 51°17.811 2°51.744 334.7 12.2 326 9.8
2012-03-22 08:41:48 51°17.825 2°51.729 334 12.2 325 9.7
2012-03-22 08:41:52 51°17.836 2°51.716 333.1 12.2 324 9.8
2012-03-22 08:41:58 51°17.853 2°51.697 332.1 12.2 323 9.8
2012-03-22 08:42:03 51°17.866 2°51.68 331.1 12.3 322 9.8
2012-03-22 08:42:08 51°17.88 2°51.663 330.3 12.2 323 9.9
2012-03-22 08:42:12 51°17.89 2°51.65 330.7 12.3 322 9.9
2012-03-22 08:42:18 51°17.907 2°51.63 330.4 12.3 322 10.1
2012-03-22 08:42:23 51°17.92 2°51.613 329.7 12.4 321 10.2
2012-03-22 08:42:28 51°17.933 2°51.596 329.4 12.4 322 10.3
2012-03-22 08:42:33 51°17.947 2°51.579 330 12.4 323 10.3
2012-03-22 08:42:38 51°17.961 2°51.564 330.8 12.3 325 10.2
2012-03-22 08:42:43 51°17.975 2°51.549 332.7 12.3 328 10.3
2012-03-22 08:42:48 51°17.99 2°51.535 334.8 12.3 329 10.4
2012-03-22 08:42:53 51°18.004 2°51.521 336.4 12.3 329 10.4
2012-03-22 08:42:58 51°18.019 2°51.507 336.9 12.3 329 10.6
2012-03-22 08:43:03 51°18.034 2°51.493 337.7 12.3 330 10.7
2012-03-22 08:43:08 51°18.049 2°51.48 338.3 12.3 330 10.8
2012-03-22 08:43:13 51°18.064 2°51.466 339 12.3 331 10.8
2012-03-22 08:43:18 51°18.078 2°51.453 339.3 12.3 330 11
2012-03-22 08:43:23 51°18.093 2°51.439 339 12.3 330 11.1
2012-03-22 08:43:28 51°18.108 2°51.425 338.9 12.4 330 11.2
2012-03-22 08:43:33 51°18.123 2°51.411 338.5 12.3 330 11.2
2012-03-22 08:43:38 51°18.138 2°51.398 338.4 12.3 329 11.4
2012-03-22 08:43:43 51°18.152 2°51.384 338.3 12.3 329 11.4
2012-03-22 08:43:48 51°18.167 2°51.37 338.2 12.3 329 11.6
2012-03-22 08:43:52 51°18.179 2°51.358 338 12.3 329 11.7
2012-03-22 08:43:58 51°18.196 2°51.341 338 12.3 328 11.8
2012-03-22 08:44:03 51°18.211 2°51.327 337.4 12.3 328 11.9
2012-03-22 08:44:08 51°18.226 2°51.313 337.2 12.4 329 12.1
2012-03-22 08:44:12 51°18.237 2°51.301 337.3 12.4 329 12
2012-03-22 08:44:18 51°18.254 2°51.285 337.6 11.7 329 12.2
2012-03-22 08:44:23 51°18.267 2°51.272 337.9 11 328 12.3
2012-03-22 08:44:28 51°18.28 2°51.26 337.6 10.7 328 12.4
2012-03-22 08:44:32 51°18.289 2°51.25 337.6 10.2 327 12.5
2012-03-22 08:44:38 51°18.303 2°51.235 337.4 9.9 326 12.6
2012-03-22 08:44:43 51°18.314 2°51.223 336.8 9.6 325 12.7
2012-03-22 08:44:48 51°18.324 2°51.211 336.1 9.4 324 12.8
2012-03-22 08:44:53 51°18.334 2°51.199 335.1 9.1 322 12.8
2012-03-22 08:44:58 51°18.344 2°51.186 334 9 322 12.9
2012-03-22 08:45:03 51°18.354 2°51.174 332.9 8.9 320 13
2012-03-22 08:45:08 51°18.363 2°51.161 332 8.8 320 13.2
2012-03-22 08:45:13 51°18.372 2°51.148 331.2 8.7 319 13.1
2012-03-22 08:45:18 51°18.38 2°51.136 330.3 8.3 318 13.2
2012-03-22 08:45:23 51°18.388 2°51.124 329.6 7.9 317 13.3
2012-03-22 08:45:28 51°18.396 2°51.113 329 7.5 316 13.3
2012-03-22 08:45:33 51°18.403 2°51.101 328.7 7.2 315 13.4
2012-03-22 08:45:38 51°18.41 2°51.09 328.1 6.9 314 13.5
2012-03-22 08:45:43 51°18.416 2°51.079 327.3 6.7 313 13.3
2012-03-22 08:45:48 51°18.422 2°51.069 326.4 6.5 311 13.5
2012-03-22 08:45:53 51°18.428 2°51.058 325.2 6.4 309 13.5
2012-03-22 08:45:58 51°18.433 2°51.047 323.9 6.3 307 13.5
2012-03-22 08:46:03 51°18.438 2°51.036 322.7 6.1 306 13.5
2012-03-22 08:46:08 51°18.443 2°51.024 321.6 6 304 13.4
2012-03-22 08:46:13 51°18.447 2°51.014 320.2 5.9 304 13.7
2012-03-22 08:46:18 51°18.451 2°51.003 319 5.8 302 13.7
2012-03-22 08:46:23 51°18.456 2°50.993 319.5 5.5 306 13.7
2012-03-22 08:46:28 51°18.461 2°50.984 323.1 5.5 310 13.8
2012-03-22 08:46:32 51°18.465 2°50.977 328.8 5.2 317 13.7
2012-03-22 08:46:38 51°18.471 2°50.969 336.1 5 325 13.7
2012-03-22 08:46:43 51°18.477 2°50.965 344 4.7 333 13.9
2012-03-22 08:46:48 51°18.483 2°50.962 352.1 4.4 342 13.8
2012-03-22 08:46:53 51°18.489 2°50.96 0.1 4.2 348 13.8
2012-03-22 08:46:58 51°18.495 2°50.96 8 3.9 -999 13.8
2012-03-22 08:47:03 51°18.5 2°50.962 16.1 3.7 13 13.8
2012-03-22 08:47:08 51°18.504 2°50.965 23.9 3.6 22 13.9
2012-03-22 08:47:12 51°18.507 2°50.968 31.7 3.5 32 13.7
2012-03-22 08:47:18 51°18.512 2°50.974 39.4 3.4 44 13.8
2012-03-22 08:47:23 51°18.514 2°50.98 47.2 3.4 55 14
2012-03-22 08:47:28 51°18.516 2°50.987 54.9 3.5 66 13.8
2012-03-22 08:47:33 51°18.518 2°50.995 62.6 3.5 77 13.8
2012-03-22 08:47:38 51°18.518 2°51.003 70.5 3.6 88 13.8
2012-03-22 08:47:43 51°18.517 2°51.011 78.6 3.8 99 13.9
2012-03-22 08:47:48 51°18.515 2°51.019 86.8 3.7 107 13.9
2012-03-22 08:47:52 51°18.513 2°51.025 94.9 3.5 122 13.8
2012-03-22 08:47:58 51°18.51 2°51.032 101.1 3.1 125 13.8
2012-03-22 08:48:03 51°18.508 2°51.036 104.6 2.8 133 13.6
2012-03-22 08:48:08 51°18.505 2°51.039 108.4 2.6 144 13.7
2012-03-22 08:48:13 51°18.502 2°51.042 113 2.5 151 13.9
2012-03-22 08:48:18 51°18.499 2°51.044 117.7 2.4 161 13.8
2012-03-22 08:48:23 51°18.496 2°51.045 122.4 2.2 166 13.8
2012-03-22 08:48:28 51°18.493 2°51.045 127.1 2.2 176 13.8
2012-03-22 08:48:32 51°18.491 2°51.045 131.9 2 182 13.8
2012-03-22 08:48:38 51°18.487 2°51.044 136.5 2 190 13.8
2012-03-22 08:48:43 51°18.485 2°51.043 140.9 1.9 195 13.8
2012-03-22 08:48:48 51°18.483 2°51.042 144.8 1.9 204 13.7
2012-03-22 08:48:52 51°18.481 2°51.04 148.8 1.7 208 13.8
2012-03-22 08:48:58 51°18.478 2°51.037 152.5 1.7 216 13.7
2012-03-22 08:49:03 51°18.477 2°51.035 156.2 1.6 221 13.8
2012-03-22 08:49:08 51°18.475 2°51.032 160.2 1.5 231 13.7
2012-03-22 08:49:12 51°18.475 2°51.03 164 1.5 239 13.7
2012-03-22 08:49:18 51°18.473 2°51.027 167.8 1.5 239 13.8
2012-03-22 08:49:23 51°18.472 2°51.024 171.3 1.5 239 13.7
2012-03-22 08:49:28 51°18.471 2°51.021 174.3 1.5 239 13.8
2012-03-22 08:49:33 51°18.47 2°51.018 177.3 1.5 237 13.8
2012-03-22 08:49:38 51°18.469 2°51.016 180.1 1.5 237 13.8
2012-03-22 08:49:43 51°18.468 2°51.013 182.5 1.4 237 13.8
2012-03-22 08:49:48 51°18.467 2°51.01 184.9 1.4 236 13.8
2012-03-22 08:49:52 51°18.466 2°51.008 187.1 1.4 235 13.7
2012-03-22 08:49:58 51°18.465 2°51.005 189 1.4 236 -999